createdAt,value
2022-10-15T00:02:25.326Z,20.00
2022-10-15T00:05:00.089Z,18.10
2022-10-15T00:07:33.685Z,17.83
2022-10-15T00:10:05.082Z,20.97
2022-10-15T00:12:36.085Z,21.33
2022-10-15T00:15:08.377Z,18.90
2022-10-15T00:17:40.616Z,16.43
2022-10-15T00:20:15.568Z,17.47
2022-10-15T00:22:47.355Z,18.47
2022-10-15T00:25:18.418Z,18.03
2022-10-15T00:27:49.223Z,18.23
2022-10-15T00:30:20.256Z,12.90
2022-10-15T00:32:51.262Z,15.27
2022-10-15T00:35:24.281Z,14.77
2022-10-15T00:37:55.792Z,16.07
2022-10-15T00:40:27.187Z,15.03
2022-10-15T00:42:58.234Z,12.80
2022-10-15T00:45:29.343Z,13.33
2022-10-15T00:48:01.356Z,13.07
2022-10-15T00:50:34.774Z,13.93
2022-10-15T00:53:11.387Z,11.63
2022-10-15T00:55:46.684Z,10.07
2022-10-15T00:58:20.957Z,10.70
2022-10-15T01:00:52.145Z,12.27
2022-10-15T01:03:23.956Z,9.53
2022-10-15T01:05:59.016Z,11.20
2022-10-15T01:08:30.354Z,12.00
2022-10-15T01:11:11.769Z,9.17
2022-10-15T01:13:51.294Z,10.03
2022-10-15T01:16:28.034Z,10.50
2022-10-15T01:19:05.597Z,11.40
2022-10-15T01:21:44.971Z,15.17
2022-10-15T01:24:52.692Z,10.63
2022-10-15T01:27:34.721Z,14.23
2022-10-15T01:30:41.950Z,9.63
2022-10-15T01:33:28.336Z,14.07
2022-10-15T01:36:06.591Z,13.27
2022-10-15T01:38:56.790Z,12.87
2022-10-15T01:41:33.921Z,11.13
2022-10-15T01:44:10.023Z,17.47
2022-10-15T01:46:48.403Z,8.90
2022-10-15T01:49:24.229Z,9.60
2022-10-15T01:51:58.098Z,13.40
2022-10-15T01:54:31.888Z,10.47
2022-10-15T01:57:04.337Z,11.93
2022-10-15T01:59:37.557Z,12.50
2022-10-15T02:02:13.090Z,13.83
2022-10-15T02:04:44.131Z,13.83
2022-10-15T02:07:22.399Z,11.13
2022-10-15T02:10:01.161Z,16.40
2022-10-15T02:12:45.573Z,13.33
2022-10-15T02:15:26.616Z,13.80
2022-10-15T02:18:03.661Z,13.83
2022-10-15T02:20:42.524Z,13.50
2022-10-15T02:23:18.208Z,12.83
2022-10-15T02:25:51.753Z,14.97
2022-10-15T02:28:23.760Z,13.27
2022-10-15T02:30:57.996Z,13.80
2022-10-15T02:33:32.832Z,13.53
2022-10-15T02:36:04.682Z,13.77
2022-10-15T02:38:38.380Z,12.93
2022-10-15T02:41:11.671Z,13.33
2022-10-15T02:43:44.408Z,16.10
2022-10-15T02:46:17.953Z,13.33
2022-10-15T02:48:51.354Z,17.73
2022-10-15T02:51:24.097Z,15.37
2022-10-15T02:53:54.986Z,12.93
2022-10-15T02:58:59.509Z,13.97
2022-10-15T03:01:30.783Z,11.37
2022-10-15T03:04:04.780Z,13.63
2022-10-15T03:06:36.492Z,14.73
2022-10-15T03:09:07.552Z,11.67
2022-10-15T03:11:39.045Z,15.60
2022-10-15T03:14:10.259Z,13.23
2022-10-15T03:16:41.261Z,11.90
2022-10-15T03:19:15.060Z,11.00
2022-10-15T03:21:46.142Z,11.47
2022-10-15T03:24:17.188Z,11.97
2022-10-15T03:26:48.028Z,12.27
2022-10-15T03:29:19.352Z,12.73
2022-10-15T03:31:50.657Z,13.17
2022-10-15T03:34:24.115Z,12.17
2022-10-15T03:36:55.166Z,17.43
2022-10-15T03:39:26.167Z,13.07
2022-10-15T03:41:57.664Z,16.33
2022-10-15T03:44:28.612Z,14.53
2022-10-15T03:46:59.768Z,13.67
2022-10-15T03:49:33.279Z,14.17
2022-10-15T03:52:05.447Z,12.60
2022-10-15T03:54:36.902Z,14.87
2022-10-15T03:57:08.307Z,13.43
2022-10-15T03:59:40.044Z,13.43
2022-10-15T04:02:11.490Z,16.13
2022-10-15T04:04:45.329Z,16.40
2022-10-15T04:07:16.376Z,13.17
2022-10-15T04:09:47.501Z,14.70
2022-10-15T04:12:19.100Z,18.40
2022-10-15T04:14:50.026Z,18.30
2022-10-15T04:17:21.572Z,17.77
2022-10-15T04:19:55.869Z,16.67
2022-10-15T04:22:27.216Z,20.87
2022-10-15T04:24:58.711Z,19.57
2022-10-15T04:27:30.224Z,21.57
2022-10-15T04:30:01.486Z,21.60
2022-10-15T04:32:33.120Z,23.20
2022-10-15T04:35:05.866Z,20.67
2022-10-15T04:37:37.641Z,24.30
2022-10-15T04:40:10.286Z,24.07
2022-10-15T04:42:41.182Z,25.50
2022-10-15T04:45:12.737Z,25.43
2022-10-15T04:47:43.771Z,24.83
2022-10-15T04:50:16.831Z,27.03
2022-10-15T04:52:48.094Z,30.80
2022-10-15T04:55:21.793Z,28.00
2022-10-15T04:57:52.856Z,28.83
2022-10-15T05:00:23.766Z,26.67
2022-10-15T05:02:55.502Z,31.67
2022-10-15T05:05:28.987Z,32.80
2022-10-15T05:08:03.867Z,35.90
2022-10-15T05:10:35.598Z,31.03
2022-10-15T05:13:06.922Z,32.23
2022-10-15T05:15:37.963Z,31.30
2022-10-15T05:18:08.984Z,27.93
2022-10-15T05:20:44.569Z,31.00
2022-10-15T05:23:16.869Z,26.53
2022-10-15T05:25:51.675Z,26.97
2022-10-15T05:28:26.003Z,29.67
2022-10-15T05:30:57.244Z,28.73
2022-10-15T05:33:30.906Z,32.47
2022-10-15T05:36:12.812Z,27.57
2022-10-15T05:38:44.298Z,31.33
2022-10-15T05:41:16.208Z,33.43
2022-10-15T05:43:49.125Z,31.43
2022-10-15T05:46:20.907Z,28.83
2022-10-15T05:48:53.481Z,31.23
2022-10-15T05:51:28.708Z,37.10
2022-10-15T05:54:00.930Z,30.83
2022-10-15T05:56:31.813Z,33.33
2022-10-15T05:59:04.151Z,34.60
2022-10-15T06:01:35.229Z,33.30
2022-10-15T06:04:06.716Z,32.57
2022-10-15T06:06:40.561Z,32.57
2022-10-15T06:09:12.171Z,28.93
2022-10-15T06:11:43.318Z,30.33
2022-10-15T06:14:14.404Z,29.23
2022-10-15T06:16:46.269Z,32.47
2022-10-15T06:19:17.298Z,29.73
2022-10-15T06:21:54.485Z,30.50
2022-10-15T06:24:25.979Z,24.87
2022-10-15T06:26:56.985Z,28.27
2022-10-15T06:29:27.817Z,28.90
2022-10-15T06:32:00.070Z,27.37
2022-10-15T06:34:31.476Z,26.13
2022-10-15T06:37:04.959Z,27.20
2022-10-15T06:39:36.156Z,27.03
2022-10-15T06:42:07.324Z,24.40
2022-10-15T06:44:38.381Z,26.53
2022-10-15T06:47:10.206Z,28.20
2022-10-15T06:49:42.096Z,26.27
2022-10-15T06:52:15.860Z,29.13
2022-10-15T06:54:47.142Z,27.20
2022-10-15T06:57:18.008Z,31.27
2022-10-15T06:59:49.496Z,30.00
2022-10-15T07:02:21.179Z,26.60
2022-10-15T07:04:53.709Z,26.00
2022-10-15T07:07:27.099Z,27.60
2022-10-15T07:09:58.118Z,27.10
2022-10-15T07:12:29.347Z,26.77
2022-10-15T07:15:00.396Z,23.77
2022-10-15T07:17:36.137Z,25.47
2022-10-15T07:20:07.984Z,24.83
2022-10-15T07:22:40.716Z,26.67
2022-10-15T07:25:13.062Z,24.30
2022-10-15T07:27:45.223Z,25.90
2022-10-15T07:30:16.445Z,41.47
2022-10-15T07:32:47.952Z,37.20
2022-10-15T07:35:19.065Z,39.03
2022-10-15T07:37:52.912Z,35.03
2022-10-15T07:40:24.223Z,35.43
2022-10-15T07:42:59.700Z,31.10
2022-10-15T07:45:31.206Z,29.00
2022-10-15T07:48:02.680Z,27.23
2022-10-15T07:50:37.162Z,25.57
2022-10-15T07:53:12.928Z,26.03
2022-10-15T07:55:43.968Z,24.20
2022-10-15T07:58:14.961Z,25.37
2022-10-15T08:00:46.145Z,26.67
2022-10-15T08:03:17.041Z,23.00
2022-10-15T08:05:48.143Z,25.63
2022-10-15T08:08:22.725Z,24.67
2022-10-15T08:10:53.928Z,23.70
2022-10-15T08:13:25.181Z,27.97
2022-10-15T08:15:59.330Z,28.20
2022-10-15T08:18:31.385Z,27.23
2022-10-15T08:21:04.175Z,25.27
2022-10-15T08:23:38.103Z,27.80
2022-10-15T08:26:09.262Z,26.67
2022-10-15T08:28:42.235Z,28.53
2022-10-15T08:31:13.638Z,27.67
2022-10-15T08:33:47.517Z,29.03
2022-10-15T08:36:18.547Z,30.13
2022-10-15T08:38:51.800Z,30.80
2022-10-15T08:41:30.042Z,27.03
2022-10-15T08:44:01.247Z,30.77
2022-10-15T08:46:38.598Z,29.50
2022-10-15T08:49:16.349Z,28.37
2022-10-15T08:51:54.515Z,33.90
2022-10-15T08:54:27.851Z,33.20
2022-10-15T08:57:12.163Z,31.77
2022-10-15T08:59:51.956Z,31.33
2022-10-15T09:02:27.824Z,29.40
2022-10-15T09:05:06.828Z,33.47
2022-10-15T09:07:43.824Z,34.27
2022-10-15T09:10:22.215Z,31.83
2022-10-15T09:13:01.587Z,36.83
2022-10-15T09:15:42.564Z,37.43
2022-10-15T09:18:23.996Z,38.83
2022-10-15T09:20:56.224Z,40.27
2022-10-15T09:23:30.708Z,38.57
2022-10-15T09:26:09.707Z,40.40
2022-10-15T09:28:46.168Z,39.40
2022-10-15T09:31:23.317Z,40.30
2022-10-15T09:33:58.017Z,40.43
2022-10-15T09:36:39.862Z,43.77
2022-10-15T09:39:34.016Z,38.13
2022-10-15T09:42:19.834Z,39.70
2022-10-15T09:44:51.561Z,40.60
2022-10-15T09:47:27.477Z,46.20
2022-10-15T09:49:59.464Z,45.33
2022-10-15T09:52:48.724Z,44.53
2022-10-15T09:55:41.047Z,43.70
2022-10-15T09:58:20.261Z,52.47
2022-10-15T10:01:01.256Z,46.90
2022-10-15T10:03:34.297Z,44.93
2022-10-15T10:06:08.016Z,50.73
2022-10-15T10:08:42.277Z,43.33
2022-10-15T10:11:14.646Z,46.07
2022-10-15T10:13:55.598Z,45.13
2022-10-15T10:16:27.108Z,44.43
2022-10-15T10:19:15.728Z,48.77
2022-10-15T10:21:47.576Z,43.07
2022-10-15T10:24:31.599Z,43.80
2022-10-15T10:29:45.334Z,43.37
2022-10-15T10:32:23.275Z,40.80
2022-10-15T10:34:54.773Z,41.57
2022-10-15T10:37:26.710Z,41.53
2022-10-15T10:40:00.158Z,44.80
2022-10-15T10:42:39.045Z,43.80
2022-10-15T10:45:29.029Z,42.53
2022-10-15T10:48:01.620Z,40.33
2022-10-15T10:50:36.504Z,41.90
2022-10-15T10:53:26.613Z,41.27
2022-10-15T10:56:01.148Z,41.23
2022-10-15T10:58:37.043Z,42.37
2022-10-15T11:01:13.623Z,43.30
2022-10-15T11:03:47.308Z,40.83
2022-10-15T11:06:37.838Z,44.13
2022-10-15T11:09:42.357Z,48.87
2022-10-15T11:12:33.541Z,46.93
2022-10-15T11:15:20.640Z,55.50
2022-10-15T11:18:07.436Z,52.23
2022-10-15T11:20:58.803Z,54.00
2022-10-15T11:23:59.368Z,59.23
2022-10-15T11:26:52.470Z,61.93
2022-10-15T11:29:38.320Z,62.27
2022-10-15T11:32:25.588Z,64.83
2022-10-15T11:35:41.007Z,65.27
2022-10-15T11:38:21.704Z,68.27
2022-10-15T11:41:06.883Z,64.77
2022-10-15T11:43:54.340Z,74.23
2022-10-15T11:46:33.811Z,72.47
2022-10-15T11:49:20.606Z,69.40
2022-10-15T11:52:08.359Z,81.10
2022-10-15T11:54:42.787Z,85.97
2022-10-15T11:57:19.138Z,88.70
2022-10-15T11:59:56.120Z,85.73
2022-10-15T12:02:32.621Z,87.80
2022-10-15T12:05:08.352Z,99.23
2022-10-15T12:07:44.392Z,102.70
2022-10-15T12:10:33.432Z,119.23
2022-10-15T12:13:12.676Z,115.63
2022-10-15T12:15:51.342Z,113.33
2022-10-15T12:18:29.808Z,111.77
2022-10-15T12:21:00.832Z,103.30
2022-10-15T12:23:45.843Z,112.73
2022-10-15T12:26:35.840Z,101.73
2022-10-15T12:29:09.366Z,100.37
2022-10-15T12:31:53.746Z,93.93
2022-10-15T12:34:34.884Z,93.67
2022-10-15T12:37:10.243Z,95.20
2022-10-15T12:39:52.251Z,98.30
2022-10-15T12:42:28.912Z,94.23
2022-10-15T12:45:01.606Z,90.80
2022-10-15T12:47:52.348Z,89.10
2022-10-15T12:50:24.955Z,89.33
2022-10-15T12:53:05.451Z,92.53
2022-10-15T12:55:40.969Z,92.23
2022-10-15T12:58:35.639Z,87.17
2022-10-15T13:01:10.330Z,85.47
2022-10-15T13:03:45.375Z,91.97
2022-10-15T13:06:37.608Z,94.07
2022-10-15T13:09:25.336Z,92.63
2022-10-15T13:11:59.868Z,104.97
2022-10-15T13:14:36.974Z,95.67
2022-10-15T13:17:16.717Z,97.83
2022-10-15T13:19:53.034Z,97.37
2022-10-15T13:22:27.245Z,106.87
2022-10-15T13:24:58.826Z,104.60
2022-10-15T13:27:35.597Z,102.17
2022-10-15T13:30:09.094Z,112.67
2022-10-15T13:32:46.194Z,107.20
2022-10-15T13:35:21.367Z,104.97
2022-10-15T13:37:53.059Z,108.07
2022-10-15T13:40:26.462Z,103.27
2022-10-15T13:43:07.609Z,102.47
2022-10-15T13:45:38.901Z,101.20
2022-10-15T13:48:15.549Z,98.70
2022-10-15T13:50:49.392Z,89.97
2022-10-15T13:53:27.118Z,93.53
2022-10-15T13:55:59.346Z,95.13
2022-10-15T13:58:33.714Z,92.53
2022-10-15T14:01:09.020Z,92.00
2022-10-15T14:03:41.556Z,93.97
2022-10-15T14:06:20.234Z,91.33
2022-10-15T14:08:53.766Z,98.83
2022-10-15T14:11:25.364Z,105.60
2022-10-15T14:14:00.582Z,100.20
2022-10-15T14:16:35.034Z,105.57
2022-10-15T14:19:16.174Z,114.83
2022-10-15T14:21:49.685Z,128.93
2022-10-15T14:24:22.668Z,124.87
2022-10-15T14:26:54.389Z,121.70
2022-10-15T14:29:30.185Z,120.30
2022-10-15T14:32:01.706Z,133.60
2022-10-15T14:34:39.196Z,144.03
2022-10-15T14:37:31.621Z,135.23
2022-10-15T14:40:19.845Z,148.73
2022-10-15T14:42:59.769Z,140.93
2022-10-15T14:45:33.736Z,143.67
2022-10-15T14:48:11.313Z,144.50
2022-10-15T14:50:45.977Z,143.27
2022-10-15T14:53:23.317Z,145.20
2022-10-15T14:55:58.997Z,142.67
2022-10-15T14:58:35.397Z,147.50
2022-10-15T15:01:11.345Z,140.80
2022-10-15T15:03:47.692Z,148.00
2022-10-15T15:06:19.724Z,145.60
2022-10-15T15:08:51.604Z,140.93
2022-10-15T15:11:24.826Z,134.03
2022-10-15T15:13:56.864Z,139.23
2022-10-15T15:16:30.165Z,126.03
2022-10-15T15:19:01.349Z,132.53
2022-10-15T15:21:32.540Z,130.00
2022-10-15T15:24:03.355Z,129.17
2022-10-15T15:26:34.371Z,120.97
2022-10-15T15:29:08.032Z,124.00
2022-10-15T15:31:43.643Z,117.33
2022-10-15T15:34:17.463Z,117.57
2022-10-15T15:36:48.756Z,112.13
2022-10-15T15:39:20.200Z,114.27
2022-10-15T15:41:51.698Z,109.60
2022-10-15T15:44:23.767Z,102.87
2022-10-15T15:46:57.316Z,104.67
2022-10-15T15:49:28.574Z,99.03
2022-10-15T15:52:00.079Z,102.10
2022-10-15T15:54:31.169Z,92.37
2022-10-15T15:57:02.120Z,94.80
2022-10-15T15:59:33.191Z,93.57
2022-10-15T16:02:06.218Z,88.70
2022-10-15T16:04:38.400Z,87.43
2022-10-15T16:07:13.172Z,84.47
2022-10-15T16:09:45.475Z,79.10
2022-10-15T16:12:16.394Z,76.00
2022-10-15T16:14:47.765Z,78.17
2022-10-15T16:17:22.080Z,76.37
2022-10-15T16:19:53.616Z,75.40
2022-10-15T16:22:27.399Z,75.03
2022-10-15T16:24:59.026Z,76.67
2022-10-15T16:27:30.223Z,74.33
2022-10-15T16:30:01.660Z,67.97
2022-10-15T16:32:34.599Z,71.00
2022-10-15T16:35:06.034Z,78.97
2022-10-15T16:37:37.074Z,74.47
2022-10-15T16:40:09.476Z,78.50
2022-10-15T16:42:40.556Z,83.40
2022-10-15T16:45:13.198Z,83.53
2022-10-15T16:47:46.200Z,80.63
2022-10-15T16:50:17.284Z,82.57
2022-10-15T16:52:48.386Z,81.77
2022-10-15T16:55:19.691Z,88.20
2022-10-15T16:57:50.696Z,86.50
2022-10-15T17:00:21.793Z,84.20
2022-10-15T17:02:55.921Z,84.50
2022-10-15T17:05:26.942Z,92.90
2022-10-15T17:07:58.457Z,91.10
2022-10-15T17:10:29.419Z,84.43
2022-10-15T17:13:00.132Z,104.57
2022-10-15T17:15:31.199Z,111.10
2022-10-15T17:18:05.110Z,107.27
2022-10-15T17:20:36.856Z,109.83
2022-10-15T17:23:08.566Z,116.33
2022-10-15T17:25:39.571Z,108.43
2022-10-15T17:28:14.580Z,104.23
2022-10-15T17:30:45.952Z,106.50
2022-10-15T17:33:19.819Z,113.03
2022-10-15T17:35:50.904Z,107.53
2022-10-15T17:38:22.693Z,114.80
2022-10-15T17:40:53.901Z,131.80
2022-10-15T17:43:26.362Z,133.03
2022-10-15T17:46:03.254Z,126.30
2022-10-15T17:48:36.836Z,142.23
2022-10-15T17:51:08.814Z,138.07
2022-10-15T17:53:40.246Z,141.50
2022-10-15T17:56:16.239Z,144.30
2022-10-15T17:58:50.068Z,167.20
2022-10-15T18:01:33.214Z,167.13
2022-10-15T18:04:08.176Z,180.50
2022-10-15T18:06:39.610Z,176.47
2022-10-15T18:09:11.292Z,184.50
2022-10-15T18:11:42.544Z,185.63
2022-10-15T18:14:13.866Z,180.53
2022-10-15T18:16:45.321Z,174.53
2022-10-15T18:19:20.662Z,171.10
2022-10-15T18:21:52.123Z,163.23
2022-10-15T18:24:24.518Z,170.53
2022-10-15T18:26:56.003Z,171.03
2022-10-15T18:29:27.300Z,192.67
2022-10-15T18:31:58.774Z,203.93
2022-10-15T18:34:34.594Z,202.90
2022-10-15T18:37:05.440Z,190.70
2022-10-15T18:39:36.776Z,194.13
2022-10-15T18:42:08.389Z,180.73
2022-10-15T18:44:39.681Z,170.53
2022-10-15T18:47:11.259Z,169.53
2022-10-15T18:49:45.849Z,178.33
2022-10-15T18:52:35.259Z,165.53
2022-10-15T18:55:09.778Z,163.13
2022-10-15T18:57:40.420Z,158.87
2022-10-15T19:00:12.269Z,166.07
2022-10-15T19:02:43.303Z,153.93
2022-10-15T19:05:18.593Z,162.37
2022-10-15T19:07:49.604Z,159.90
2022-10-15T19:10:21.125Z,150.03
2022-10-15T19:12:52.124Z,154.17
2022-10-15T19:15:23.662Z,152.53
2022-10-15T19:17:55.541Z,149.63
2022-10-15T19:20:29.140Z,152.23
2022-10-15T19:23:00.680Z,152.53
2022-10-15T19:25:32.378Z,151.63
2022-10-15T19:28:03.961Z,159.23
2022-10-15T19:30:35.016Z,155.23
2022-10-15T19:33:08.950Z,161.03
2022-10-15T19:35:53.168Z,157.03
2022-10-15T19:38:24.828Z,150.13
2022-10-15T19:40:57.189Z,149.20
2022-10-15T19:43:28.470Z,158.33
2022-10-15T19:45:59.516Z,150.17
2022-10-15T19:48:30.869Z,150.73
2022-10-15T19:51:05.455Z,153.03
2022-10-15T19:53:37.008Z,151.50
2022-10-15T19:56:10.520Z,154.93
2022-10-15T19:58:41.534Z,151.87
2022-10-15T20:01:13.405Z,157.80
2022-10-15T20:03:44.362Z,150.40
2022-10-15T20:06:17.635Z,154.57
2022-10-15T20:08:48.669Z,155.83
2022-10-15T20:11:20.416Z,165.60
2022-10-15T20:13:51.603Z,157.10
2022-10-15T20:16:23.693Z,156.67
2022-10-15T20:18:57.225Z,159.97
2022-10-15T20:21:30.280Z,164.07
2022-10-15T20:24:05.318Z,158.17
2022-10-15T20:26:36.582Z,160.57
2022-10-15T20:29:07.880Z,157.40
2022-10-15T20:31:38.940Z,162.90
2022-10-15T20:34:10.814Z,156.70
2022-10-15T20:36:44.300Z,159.67
2022-10-15T20:39:15.357Z,159.87
2022-10-15T20:41:47.849Z,159.03
2022-10-15T20:44:18.895Z,162.80
2022-10-15T20:46:54.296Z,153.13
2022-10-15T20:49:29.737Z,145.50
2022-10-15T20:52:03.307Z,145.00
2022-10-15T20:54:37.628Z,142.30
2022-10-15T20:57:09.713Z,140.87
2022-10-15T20:59:40.695Z,141.90
2022-10-15T21:02:11.654Z,141.10
2022-10-15T21:04:43.152Z,144.93
2022-10-15T21:07:16.171Z,142.00
2022-10-15T21:09:47.727Z,152.37
2022-10-15T21:12:20.033Z,144.47
2022-10-15T21:14:51.423Z,142.60
2022-10-15T21:17:22.631Z,142.87
2022-10-15T21:19:54.015Z,148.60
2022-10-15T21:22:27.826Z,151.67
2022-10-15T21:24:58.733Z,159.03
2022-10-15T21:27:30.005Z,157.83
2022-10-15T21:30:01.958Z,154.93
2022-10-15T21:32:34.212Z,150.07
2022-10-15T21:35:05.452Z,132.03
2022-10-15T21:37:50.376Z,128.73
2022-10-15T21:40:22.087Z,126.37
2022-10-15T21:42:53.074Z,125.37
2022-10-15T21:45:24.092Z,126.70
2022-10-15T21:47:55.266Z,126.30
2022-10-15T21:50:27.756Z,116.37
2022-10-15T21:55:34.614Z,104.33
2022-10-15T21:58:05.712Z,106.03
2022-10-15T22:00:36.913Z,102.47
2022-10-15T22:03:08.430Z,105.13
2022-10-15T22:05:40.821Z,109.40
2022-10-15T22:08:15.245Z,103.87
2022-10-15T22:10:47.193Z,101.97
2022-10-15T22:13:18.653Z,98.73
2022-10-15T22:15:50.252Z,107.43
2022-10-15T22:18:21.236Z,97.90
2022-10-15T22:20:53.147Z,98.70
2022-10-15T22:23:27.954Z,99.60
2022-10-15T22:26:02.758Z,97.83
2022-10-15T22:28:34.261Z,98.40
2022-10-15T22:31:07.762Z,92.77
2022-10-15T22:33:40.768Z,92.67
2022-10-15T22:36:14.336Z,92.10
2022-10-15T22:38:49.307Z,92.33
2022-10-15T22:41:20.674Z,92.47
2022-10-15T22:43:52.261Z,98.93
2022-10-15T22:46:23.337Z,98.93
2022-10-15T22:48:54.574Z,99.47
2022-10-15T22:51:26.913Z,101.37
2022-10-15T22:54:01.115Z,98.77
2022-10-15T22:56:32.987Z,97.80
2022-10-15T22:59:05.424Z,103.70
2022-10-15T23:01:38.328Z,105.23
2022-10-15T23:04:10.447Z,107.73
2022-10-15T23:06:42.454Z,112.27
2022-10-15T23:09:18.488Z,112.90
2022-10-15T23:11:50.025Z,115.30
2022-10-15T23:14:21.179Z,104.30
2022-10-15T23:16:52.302Z,114.50
2022-10-15T23:19:25.441Z,108.13
2022-10-15T23:21:58.340Z,105.40
2022-10-15T23:24:31.901Z,103.73
2022-10-15T23:27:02.716Z,100.23
2022-10-15T23:29:33.801Z,104.77
2022-10-15T23:32:05.455Z,99.43
2022-10-15T23:34:36.937Z,98.37
2022-10-15T23:37:08.225Z,98.60
2022-10-15T23:39:42.268Z,100.20
2022-10-15T23:42:13.270Z,94.97
2022-10-15T23:44:44.542Z,94.27
2022-10-15T23:47:15.552Z,96.30
2022-10-15T23:49:46.743Z,88.73
2022-10-15T23:52:17.773Z,91.20
2022-10-15T23:54:53.348Z,90.37
2022-10-15T23:57:24.508Z,90.47
2022-10-15T23:59:55.847Z,90.53
